New Seabury, Massachusetts
Current Conditions -  °F | °C
As of 9:55 AM on Tuesday 21 Oct 2014 (Local Time) from KFMH Reporting Station
Overcast Overcast  
Wind Chill: 61°   Ceiling: 1300
Heat Index: 61°   Visibility: 10mi
Dew Point: 55°   Wind: 13mph
Humidity: 82%   Direction: 160°SSE
Pressure: 29.96"   Gusts: 21mph
Location:  41.6167°N, 70.4906°W
Report Text: KFMH 211355Z AUTO 16011G18KT 10SM BKN013 OVC017 16/13 A2996 RMK AO2
Loading
Personal Weather Stations






























Interactive Weather Map
Tropical Storm Tracking
New forecast layout! Learn more

10-Day Weather Forecast

Advertisements
Track Severe Weather on mobile